createdAt,value
2023-01-11T00:00:44.807Z,3.92
2023-01-11T00:03:12.769Z,3.97
2023-01-11T00:05:41.421Z,3.85
2023-01-11T00:08:09.328Z,4.18
2023-01-11T00:10:37.131Z,4.37
2023-01-11T00:13:04.908Z,3.75
2023-01-11T00:15:32.443Z,4.50
2023-01-11T00:18:00.148Z,3.45
2023-01-11T00:20:27.970Z,4.40
2023-01-11T00:22:55.340Z,3.87
2023-01-11T00:25:23.081Z,4.30
2023-01-11T00:27:50.715Z,3.53
2023-01-11T00:30:18.632Z,4.82
2023-01-11T00:32:46.320Z,3.15
2023-01-11T00:35:13.729Z,3.80
2023-01-11T00:37:41.207Z,3.85
2023-01-11T00:40:09.289Z,3.42
2023-01-11T00:42:55.353Z,2.72
2023-01-11T00:45:42.008Z,3.80
2023-01-11T00:48:10.814Z,4.05
2023-01-11T00:50:40.199Z,3.53
2023-01-11T00:53:08.651Z,2.70
2023-01-11T00:55:36.584Z,3.35
2023-01-11T00:58:04.714Z,4.20
2023-01-11T01:00:32.179Z,3.47
2023-01-11T01:02:59.729Z,3.85
2023-01-11T01:05:27.610Z,3.35
2023-01-11T01:07:55.000Z,3.70
2023-01-11T01:10:22.361Z,4.25
2023-01-11T01:13:08.279Z,4.25
2023-01-11T01:15:36.173Z,2.83
2023-01-11T01:18:03.963Z,3.83
2023-01-11T01:20:31.380Z,3.80
2023-01-11T01:22:58.771Z,2.85
2023-01-11T01:25:26.443Z,3.55
2023-01-11T01:27:53.823Z,3.72
2023-01-11T01:30:21.214Z,4.12
2023-01-11T01:32:48.929Z,3.60
2023-01-11T01:35:16.288Z,3.90
2023-01-11T01:37:44.748Z,3.75
2023-01-11T01:40:13.071Z,3.90
2023-01-11T01:42:40.450Z,4.40
2023-01-11T01:45:18.377Z,4.03
2023-01-11T01:47:48.286Z,3.83
2023-01-11T01:50:27.923Z,4.00
2023-01-11T01:52:59.801Z,3.60
2023-01-11T01:55:31.796Z,4.60
2023-01-11T01:58:00.709Z,3.87
2023-01-11T02:00:28.117Z,3.50
2023-01-11T02:02:57.626Z,4.35
2023-01-11T02:05:25.579Z,4.30
2023-01-11T02:07:56.199Z,4.62
2023-01-11T02:10:23.649Z,5.78
2023-01-11T02:13:02.800Z,4.85
2023-01-11T02:15:30.544Z,4.70
2023-01-11T02:17:58.384Z,4.65
2023-01-11T02:20:53.308Z,4.10
2023-01-11T02:23:39.223Z,4.87
2023-01-11T02:26:27.798Z,5.70
2023-01-11T02:29:22.853Z,4.68
2023-01-11T02:31:59.189Z,5.22
2023-01-11T02:34:35.504Z,4.70
2023-01-11T02:37:12.078Z,4.95
2023-01-11T02:40:07.246Z,4.60
2023-01-11T02:43:19.991Z,5.47
2023-01-11T02:46:06.245Z,4.70
2023-01-11T02:49:27.755Z,5.10
2023-01-11T02:52:01.897Z,5.25
2023-01-11T02:54:29.870Z,4.80
2023-01-11T02:56:59.168Z,5.25
2023-01-11T02:59:32.619Z,5.50
2023-01-11T03:02:00.587Z,4.65
2023-01-11T03:04:37.239Z,5.25
2023-01-11T03:07:14.253Z,5.55
2023-01-11T03:09:59.865Z,5.65
2023-01-11T03:13:03.457Z,5.32
2023-01-11T03:16:01.465Z,5.18
2023-01-11T03:18:49.193Z,5.68
2023-01-11T03:21:58.311Z,5.28
2023-01-11T03:24:31.297Z,4.30
2023-01-11T03:27:04.807Z,4.22
2023-01-11T03:29:37.589Z,4.78
2023-01-11T03:32:11.118Z,4.85
2023-01-11T03:34:52.927Z,4.78
2023-01-11T03:37:28.681Z,5.22
2023-01-11T03:40:05.648Z,5.25
2023-01-11T03:42:33.959Z,5.90
2023-01-11T03:45:03.198Z,5.40
2023-01-11T03:47:32.949Z,5.47
2023-01-11T03:50:05.339Z,5.78
2023-01-11T03:52:38.398Z,4.30
2023-01-11T03:55:08.245Z,5.47
2023-01-11T03:57:43.238Z,5.70
2023-01-11T04:00:11.707Z,5.20
2023-01-11T04:02:40.614Z,5.68
2023-01-11T04:05:10.058Z,5.53
2023-01-11T04:07:37.558Z,5.07
2023-01-11T04:10:05.883Z,5.60
2023-01-11T04:12:33.301Z,6.28
2023-01-11T04:15:03.139Z,5.78
2023-01-11T04:17:32.379Z,5.07
2023-01-11T04:19:59.752Z,6.03
2023-01-11T04:22:27.106Z,6.85
2023-01-11T04:24:54.820Z,7.00
2023-01-11T04:27:22.153Z,6.10
2023-01-11T04:29:49.507Z,5.60
2023-01-11T04:32:17.203Z,5.20
2023-01-11T04:34:44.552Z,5.43
2023-01-11T04:37:12.103Z,5.10
2023-01-11T04:39:39.756Z,4.72
2023-01-11T04:42:19.091Z,5.40
2023-01-11T04:44:48.926Z,4.87
2023-01-11T04:47:17.486Z,5.62
2023-01-11T04:49:45.532Z,6.45
2023-01-11T04:52:15.156Z,6.35
2023-01-11T04:54:43.915Z,6.55
2023-01-11T04:57:13.390Z,5.72
2023-01-11T04:59:41.156Z,6.22
2023-01-11T05:02:08.679Z,6.40
2023-01-11T05:04:36.098Z,5.82
2023-01-11T05:07:03.825Z,6.20
2023-01-11T05:09:31.555Z,5.20
2023-01-11T05:11:58.948Z,6.25
2023-01-11T05:14:26.610Z,7.47
2023-01-11T05:16:54.077Z,6.03
2023-01-11T05:19:21.559Z,6.95
2023-01-11T05:21:49.289Z,6.60
2023-01-11T05:24:17.187Z,6.50
2023-01-11T05:26:45.123Z,6.85
2023-01-11T05:29:16.429Z,6.32
2023-01-11T05:31:43.975Z,8.70
2023-01-11T05:34:13.525Z,7.65
2023-01-11T05:36:41.615Z,6.75
2023-01-11T05:39:09.379Z,6.22
2023-01-11T05:41:36.799Z,6.80
2023-01-11T05:44:23.610Z,6.93
2023-01-11T05:46:51.008Z,8.68
2023-01-11T05:49:18.766Z,7.80
2023-01-11T05:51:46.149Z,7.15
2023-01-11T05:54:14.748Z,7.47
2023-01-11T05:56:43.028Z,6.28
2023-01-11T05:59:10.660Z,6.95
2023-01-11T06:01:38.385Z,6.68
2023-01-11T06:04:06.481Z,6.22
2023-01-11T06:06:34.159Z,5.85
2023-01-11T06:09:01.614Z,5.72
2023-01-11T06:11:29.425Z,6.32
2023-01-11T06:13:56.800Z,6.70
2023-01-11T06:16:24.366Z,6.43
2023-01-11T06:18:53.193Z,6.57
2023-01-11T06:21:20.777Z,5.97
2023-01-11T06:23:50.866Z,6.18
2023-01-11T06:26:21.249Z,6.10
2023-01-11T06:28:48.805Z,6.65
2023-01-11T06:31:17.900Z,6.32
2023-01-11T06:33:48.119Z,6.10
2023-01-11T06:36:16.231Z,5.78
2023-01-11T06:38:44.494Z,6.22
2023-01-11T06:41:13.246Z,5.97
2023-01-11T06:43:42.155Z,6.15
2023-01-11T06:46:14.282Z,6.18
2023-01-11T06:48:43.059Z,5.53
2023-01-11T06:51:13.601Z,5.25
2023-01-11T06:53:42.013Z,5.50
2023-01-11T06:56:13.628Z,6.55
2023-01-11T06:58:41.330Z,6.00
2023-01-11T07:01:09.000Z,6.53
2023-01-11T07:03:39.007Z,5.60
2023-01-11T07:06:06.605Z,6.40
2023-01-11T07:08:34.049Z,5.57
2023-01-11T07:11:01.843Z,4.97
2023-01-11T07:13:29.298Z,5.47
2023-01-11T07:15:58.009Z,8.45
2023-01-11T07:18:25.819Z,5.87
2023-01-11T07:20:53.215Z,6.18
2023-01-11T07:23:20.687Z,5.47
2023-01-11T07:25:49.688Z,9.20
2023-01-11T07:28:17.119Z,5.78
2023-01-11T07:30:57.302Z,6.55
2023-01-11T07:33:27.170Z,5.60
2023-01-11T07:35:55.194Z,6.00
2023-01-11T07:38:23.073Z,7.53
2023-01-11T07:40:50.783Z,7.43
2023-01-11T07:43:19.984Z,6.75
2023-01-11T07:45:51.565Z,6.10
2023-01-11T07:48:24.871Z,7.70
2023-01-11T07:50:53.200Z,6.82
2023-01-11T07:53:21.223Z,6.18
2023-01-11T07:55:48.660Z,7.32
2023-01-11T07:58:16.254Z,5.57
2023-01-11T08:00:46.005Z,6.75
2023-01-11T08:03:13.926Z,6.07
2023-01-11T08:05:41.423Z,6.25
2023-01-11T08:08:08.850Z,5.75
2023-01-11T08:10:36.531Z,6.22
2023-01-11T08:13:22.603Z,6.97
2023-01-11T08:15:50.393Z,6.60
2023-01-11T08:18:18.029Z,5.43
2023-01-11T08:20:45.913Z,5.78
2023-01-11T08:23:13.790Z,6.10
2023-01-11T08:25:41.230Z,8.05
2023-01-11T08:28:09.009Z,6.65
2023-01-11T08:30:37.432Z,10.55
2023-01-11T08:33:05.804Z,6.53
2023-01-11T08:35:38.529Z,8.23
2023-01-11T08:38:06.996Z,6.03
2023-01-11T08:40:34.482Z,5.18
2023-01-11T08:43:02.017Z,5.37
2023-01-11T08:45:29.681Z,5.45
2023-01-11T08:47:59.258Z,5.68
2023-01-11T08:50:26.771Z,6.05
2023-01-11T08:52:54.559Z,4.90
2023-01-11T08:55:23.334Z,5.25
2023-01-11T08:57:50.739Z,4.10
2023-01-11T09:00:19.272Z,5.10
2023-01-11T09:02:46.765Z,5.75
2023-01-11T09:05:16.255Z,5.45
2023-01-11T09:07:46.240Z,5.60
2023-01-11T09:10:13.724Z,5.70
2023-01-11T09:12:41.115Z,5.30
2023-01-11T09:15:09.722Z,4.93
2023-01-11T09:17:37.324Z,5.18
2023-01-11T09:20:05.599Z,5.62
2023-01-11T09:22:34.144Z,5.00
2023-01-11T09:25:01.664Z,4.80
2023-01-11T09:27:29.932Z,5.35
2023-01-11T09:29:57.701Z,4.93
2023-01-11T09:32:25.272Z,4.03
2023-01-11T09:34:57.303Z,5.60
2023-01-11T09:37:25.174Z,4.55
2023-01-11T09:39:52.746Z,5.20
2023-01-11T09:42:35.003Z,4.28
2023-01-11T09:45:11.116Z,6.75
2023-01-11T09:48:04.439Z,5.85
2023-01-11T09:50:40.014Z,6.85
2023-01-11T09:53:13.907Z,14.52
2023-01-11T09:55:46.850Z,5.90
2023-01-11T09:58:33.027Z,9.77
2023-01-11T10:01:21.983Z,10.10
2023-01-11T10:04:20.566Z,5.55
2023-01-11T10:07:01.042Z,6.15
2023-01-11T10:18:32.543Z,6.62
2023-01-11T10:19:04.260Z,6.15
2023-01-11T10:21:35.385Z,6.70
2023-01-11T10:24:07.495Z,6.05
2023-01-11T10:26:39.968Z,6.35
2023-01-11T10:29:16.904Z,6.43
2023-01-11T10:32:02.694Z,6.62
2023-01-11T10:34:53.367Z,6.25
2023-01-11T10:37:24.077Z,6.50
2023-01-11T10:40:23.474Z,6.75
2023-01-11T10:42:57.238Z,5.75
2023-01-11T10:45:46.358Z,5.72
2023-01-11T10:48:23.032Z,5.78
2023-01-11T10:51:06.000Z,6.18
2023-01-11T10:53:42.391Z,9.10
2023-01-11T10:56:16.037Z,5.90
2023-01-11T10:58:49.695Z,6.50
2023-01-11T11:01:38.540Z,5.37
2023-01-11T11:04:23.584Z,5.68
2023-01-11T11:07:14.200Z,5.68
2023-01-11T11:09:53.355Z,5.57
2023-01-11T11:12:25.623Z,5.55
2023-01-11T11:15:27.629Z,6.10
2023-01-11T11:17:55.233Z,5.47
2023-01-11T11:20:25.449Z,4.53
2023-01-11T11:22:55.024Z,4.45
2023-01-11T11:25:33.712Z,4.62
2023-01-11T11:28:04.743Z,4.97
2023-01-11T11:30:38.225Z,5.57
2023-01-11T11:33:19.348Z,5.47
2023-01-11T11:35:54.842Z,4.68
2023-01-11T11:38:30.071Z,5.85
2023-01-11T11:41:10.151Z,4.82
2023-01-11T11:43:42.191Z,5.10
2023-01-11T11:46:19.439Z,4.32
2023-01-11T11:49:12.653Z,5.25
2023-01-11T11:51:42.763Z,4.43
2023-01-11T11:54:30.012Z,4.37
2023-01-11T11:57:00.207Z,5.47
2023-01-11T11:59:30.201Z,5.05
2023-01-11T12:02:01.160Z,4.93
2023-01-11T12:04:33.249Z,4.62
2023-01-11T12:07:08.557Z,4.87
2023-01-11T12:09:36.603Z,3.95
2023-01-11T12:12:04.465Z,4.37
2023-01-11T12:14:35.206Z,4.32
2023-01-11T12:17:25.228Z,4.30
2023-01-11T12:19:52.671Z,4.03
2023-01-11T12:22:28.046Z,4.20
2023-01-11T12:25:13.722Z,4.07
2023-01-11T12:28:06.801Z,3.85
2023-01-11T12:30:46.471Z,4.20
2023-01-11T12:33:29.184Z,5.10
2023-01-11T12:36:22.856Z,4.70
2023-01-11T12:39:07.683Z,4.28
2023-01-11T12:41:44.330Z,4.78
2023-01-11T12:44:54.852Z,4.32
2023-01-11T12:47:31.683Z,4.10
2023-01-11T12:50:11.335Z,3.62
2023-01-11T12:52:44.738Z,4.65
2023-01-11T12:55:27.376Z,4.65
2023-01-11T12:58:36.133Z,4.72
2023-01-11T13:01:22.249Z,5.37
2023-01-11T13:04:23.973Z,4.95
2023-01-11T13:07:22.935Z,5.05
2023-01-11T13:10:05.694Z,5.65
2023-01-11T13:12:38.144Z,4.60
2023-01-11T13:15:27.167Z,4.80
2023-01-11T13:18:18.307Z,4.07
2023-01-11T13:21:02.471Z,4.28
2023-01-11T13:23:54.721Z,4.65
2023-01-11T13:26:31.235Z,4.65
2023-01-11T13:29:18.664Z,4.70
2023-01-11T13:31:47.508Z,4.80
2023-01-11T13:35:09.408Z,4.25
2023-01-11T13:37:55.011Z,4.93
2023-01-11T13:40:29.599Z,4.20
2023-01-11T13:43:04.074Z,5.00
2023-01-11T13:45:44.556Z,4.15
2023-01-11T13:48:26.014Z,5.10
2023-01-11T13:51:02.932Z,5.10
2023-01-11T13:53:47.296Z,4.22
2023-01-11T13:56:40.939Z,4.20
2023-01-11T13:59:31.517Z,4.70
2023-01-11T14:02:38.532Z,6.20
2023-01-11T14:05:18.975Z,5.55
2023-01-11T14:07:46.389Z,5.35
2023-01-11T14:10:23.748Z,5.45
2023-01-11T14:13:02.834Z,5.37
2023-01-11T14:16:09.049Z,5.97
2023-01-11T14:18:46.689Z,5.35
2023-01-11T14:21:22.654Z,5.05
2023-01-11T14:23:52.170Z,5.70
2023-01-11T14:26:28.999Z,5.82
2023-01-11T14:29:29.167Z,5.07
2023-01-11T14:32:21.512Z,4.87
2023-01-11T14:34:48.838Z,5.12
2023-01-11T14:37:16.490Z,4.72
2023-01-11T14:39:55.811Z,4.75
2023-01-11T14:43:01.768Z,5.45
2023-01-11T14:46:06.755Z,6.90
2023-01-11T14:49:03.119Z,5.95
2023-01-11T14:51:55.842Z,5.68
2023-01-11T14:54:40.700Z,7.60
2023-01-11T14:57:38.174Z,7.95
2023-01-11T15:00:26.113Z,8.40
2023-01-11T15:02:59.715Z,9.45
2023-01-11T15:05:31.026Z,9.55
2023-01-11T15:08:23.750Z,7.72
2023-01-11T15:11:06.200Z,7.03
2023-01-11T15:13:44.418Z,6.80
2023-01-11T15:16:41.036Z,7.43
2023-01-11T15:19:11.910Z,8.05
2023-01-11T15:21:47.917Z,9.23
2023-01-11T15:24:30.546Z,6.80
2023-01-11T15:27:00.436Z,8.27
2023-01-11T15:29:30.915Z,9.40
2023-01-11T15:32:06.883Z,8.88
2023-01-11T15:34:34.293Z,9.05
2023-01-11T15:37:06.519Z,9.30
2023-01-11T15:39:36.674Z,10.02
2023-01-11T15:42:17.689Z,8.95
2023-01-11T15:45:01.937Z,9.65
2023-01-11T15:47:54.628Z,11.60
2023-01-11T15:50:40.472Z,12.10
2023-01-11T15:53:36.269Z,11.25
2023-01-11T15:56:37.642Z,10.27
2023-01-11T15:59:17.927Z,9.13
2023-01-11T16:02:07.209Z,9.27
2023-01-11T16:05:06.020Z,9.95
2023-01-11T16:07:52.017Z,11.27
2023-01-11T16:10:27.785Z,15.93
2023-01-11T16:13:03.922Z,13.32
2023-01-11T16:15:37.589Z,12.27
2023-01-11T16:18:16.980Z,11.63
2023-01-11T16:20:56.177Z,13.48
2023-01-11T16:23:24.095Z,14.18
2023-01-11T16:25:56.220Z,19.58
2023-01-11T16:28:25.055Z,19.58
2023-01-11T16:30:56.188Z,19.85
2023-01-11T16:33:26.809Z,16.42
2023-01-11T16:36:13.320Z,15.95
2023-01-11T16:39:03.435Z,17.20
2023-01-11T16:41:43.789Z,16.95
2023-01-11T16:44:49.967Z,20.62
2023-01-11T16:47:19.330Z,29.40
2023-01-11T16:49:49.397Z,31.42
2023-01-11T16:52:28.660Z,24.83
2023-01-11T16:54:57.367Z,26.30
2023-01-11T16:57:35.893Z,29.48
2023-01-11T17:00:22.399Z,33.85
2023-01-11T17:03:21.669Z,35.35
2023-01-11T17:06:02.704Z,30.58
2023-01-11T17:08:35.139Z,33.58
2023-01-11T17:11:46.794Z,28.27
2023-01-11T17:14:18.183Z,27.62
2023-01-11T17:16:48.751Z,28.12
2023-01-11T17:19:22.134Z,23.77
2023-01-11T17:21:52.704Z,23.80
2023-01-11T17:24:24.881Z,28.10
2023-01-11T17:26:58.887Z,27.13
2023-01-11T17:29:34.074Z,30.03
2023-01-11T17:32:04.762Z,21.60
2023-01-11T17:34:35.031Z,16.25
2023-01-11T17:37:10.481Z,16.98
2023-01-11T17:42:26.405Z,14.45
2023-01-11T17:45:13.540Z,13.23
2023-01-11T17:48:12.612Z,11.10
2023-01-11T17:50:46.933Z,11.27
2023-01-11T17:53:22.214Z,10.52
2023-01-11T17:55:54.848Z,11.88
2023-01-11T17:58:26.400Z,11.75
2023-01-11T18:01:15.066Z,12.07
2023-01-11T18:03:53.499Z,12.50
2023-01-11T18:06:29.600Z,12.95
2023-01-11T18:08:58.262Z,12.65
2023-01-11T18:11:37.271Z,15.05
2023-01-11T18:14:08.134Z,16.52
2023-01-11T18:16:35.596Z,16.27
2023-01-11T18:19:23.439Z,14.43
2023-01-11T18:21:53.328Z,14.48
2023-01-11T18:24:27.512Z,12.10
2023-01-11T18:27:15.668Z,13.10
2023-01-11T18:29:43.203Z,14.23
2023-01-11T18:32:12.375Z,13.52
2023-01-11T18:34:40.007Z,12.37
2023-01-11T18:37:10.987Z,11.15
2023-01-11T18:39:40.518Z,13.13
2023-01-11T18:42:15.072Z,15.20
2023-01-11T18:47:17.228Z,21.12
2023-01-11T18:49:45.712Z,24.52
2023-01-11T18:52:13.946Z,22.05
2023-01-11T18:54:42.433Z,19.90
2023-01-11T18:57:11.602Z,14.65
2023-01-11T18:59:39.716Z,12.35
2023-01-11T19:04:54.675Z,11.98
2023-01-11T19:07:24.355Z,11.63
2023-01-11T19:09:55.236Z,10.65
2023-01-11T19:12:23.931Z,10.38
2023-01-11T19:14:51.822Z,10.02
2023-01-11T19:17:19.943Z,10.23
2023-01-11T19:19:47.667Z,9.80
2023-01-11T19:22:15.694Z,12.13
2023-01-11T19:24:43.692Z,16.15
2023-01-11T19:27:13.710Z,13.52
2023-01-11T19:29:42.246Z,13.23
2023-01-11T19:32:10.103Z,17.75
2023-01-11T19:34:39.927Z,15.30
2023-01-11T19:37:16.204Z,16.50
2023-01-11T19:39:44.317Z,15.50
2023-01-11T19:42:12.830Z,14.32
2023-01-11T19:44:41.347Z,14.13
2023-01-11T19:47:13.183Z,13.68
2023-01-11T19:49:43.027Z,13.45
2023-01-11T19:52:19.400Z,13.75
2023-01-11T19:54:49.384Z,11.73
2023-01-11T19:57:20.954Z,12.88
2023-01-11T19:59:50.246Z,15.88
2023-01-11T20:02:20.259Z,16.92
2023-01-11T20:04:50.293Z,15.15
2023-01-11T20:07:20.742Z,16.17
2023-01-11T20:09:49.082Z,15.80
2023-01-11T20:12:16.985Z,15.70
2023-01-11T20:14:46.816Z,14.90
2023-01-11T20:17:19.321Z,14.60
2023-01-11T20:19:55.593Z,13.85
2023-01-11T20:22:24.491Z,12.60
2023-01-11T20:24:56.067Z,14.32
2023-01-11T20:27:24.863Z,13.68
2023-01-11T20:29:53.877Z,13.57
2023-01-11T20:32:40.524Z,15.23
2023-01-11T20:35:10.609Z,16.23
2023-01-11T20:37:38.523Z,22.55
2023-01-11T20:40:08.929Z,25.77
2023-01-11T20:42:42.486Z,24.48
2023-01-11T20:45:10.910Z,22.73
2023-01-11T20:47:38.896Z,23.20
2023-01-11T20:50:07.253Z,25.45
2023-01-11T20:52:38.536Z,31.35
2023-01-11T20:55:08.376Z,27.87
2023-01-11T20:57:36.034Z,22.13
2023-01-11T21:00:04.528Z,22.02
2023-01-11T21:02:32.527Z,25.88
2023-01-11T21:05:00.335Z,26.90
2023-01-11T21:07:28.226Z,29.02
2023-01-11T21:09:56.496Z,25.73
2023-01-11T21:12:26.104Z,22.87
2023-01-11T21:14:53.772Z,16.02
2023-01-11T21:17:21.795Z,13.57
2023-01-11T21:19:50.563Z,15.07
2023-01-11T21:22:18.351Z,16.10
2023-01-11T21:24:48.382Z,14.25
2023-01-11T21:27:15.892Z,14.77
2023-01-11T21:29:43.390Z,12.23
2023-01-11T21:32:11.103Z,11.48
2023-01-11T21:34:38.562Z,12.98
2023-01-11T21:37:05.997Z,15.13
2023-01-11T21:39:33.784Z,14.87
2023-01-11T21:42:03.564Z,16.33
2023-01-11T21:44:33.663Z,15.20
2023-01-11T21:47:03.446Z,13.88
2023-01-11T21:49:31.716Z,13.77
2023-01-11T21:51:59.193Z,14.45
2023-01-11T21:54:27.017Z,13.48
2023-01-11T21:56:54.451Z,11.50
2023-01-11T21:59:22.433Z,11.50
2023-01-11T22:01:50.324Z,10.77
2023-01-11T22:04:19.894Z,10.80
2023-01-11T22:06:51.308Z,11.95
2023-01-11T22:09:19.952Z,11.55
2023-01-11T22:11:47.521Z,10.43
2023-01-11T22:14:14.957Z,10.20
2023-01-11T22:16:42.932Z,10.55
2023-01-11T22:19:10.463Z,10.38
2023-01-11T22:21:38.221Z,10.60
2023-01-11T22:24:08.411Z,12.18
2023-01-11T22:26:38.798Z,12.13
2023-01-11T22:29:17.264Z,13.50
2023-01-11T22:31:51.449Z,12.15
2023-01-11T22:34:19.838Z,13.40
2023-01-11T22:36:47.371Z,11.93
2023-01-11T22:39:16.167Z,11.77
2023-01-11T22:41:45.866Z,10.68
2023-01-11T22:44:13.864Z,10.43
2023-01-11T22:46:41.791Z,9.90
2023-01-11T22:49:10.472Z,10.40
2023-01-11T22:51:37.981Z,10.40
2023-01-11T22:54:05.430Z,9.88
2023-01-11T22:56:33.428Z,9.52
2023-01-11T22:59:01.047Z,9.50
2023-01-11T23:01:31.057Z,10.05
2023-01-11T23:03:59.191Z,9.43
2023-01-11T23:06:28.809Z,9.98
2023-01-11T23:08:57.786Z,9.43
2023-01-11T23:11:46.563Z,9.30
2023-01-11T23:14:16.170Z,9.20
2023-01-11T23:16:45.070Z,8.88
2023-01-11T23:19:14.437Z,7.68
2023-01-11T23:21:43.456Z,8.07
2023-01-11T23:24:12.366Z,7.35
2023-01-11T23:26:40.228Z,8.05
2023-01-11T23:29:07.760Z,9.20
2023-01-11T23:31:35.768Z,8.70
2023-01-11T23:34:06.914Z,8.07
2023-01-11T23:36:36.951Z,8.85
2023-01-11T23:39:05.904Z,8.13
2023-01-11T23:41:52.041Z,8.35
2023-01-11T23:44:19.838Z,9.30
2023-01-11T23:47:05.719Z,8.95
2023-01-11T23:49:33.781Z,8.10
2023-01-11T23:52:01.447Z,8.57
2023-01-11T23:54:32.118Z,8.60
2023-01-11T23:57:00.650Z,9.05
2023-01-11T23:59:28.362Z,9.32
